Terminal Aerodrome Forecast
Issued by NWS

Home | Current Version | Previous Version | Text Only | Print | Product List | Glossary On
Versions: 1 2 3 4 5 6 7 8 9 10 11 12 13 14 15 16 17
697
FTUS44 KJAN 210528
TAFGTR
TAF
KGTR 210528Z 2106/2206 00000KT P6SM FEW060
     FM211100 00000KT 5SM BR FEW015
     FM211400 08004KT P6SM SCT030
     FM212100 06005KT P6SM VCTS BKN040CB
     FM220000 08003KT P6SM FEW040 SCT100=

USA.gov is the U.S. government's official web portal to all federal, state and local government web resources and services.